Flight Track Log - Related Links

Times and Time Zones

All times are in EDT time to prevent confusion due to time zone crossing. See the CTL101 flight status page for this flight to view local times or setup timezone preferences in your user account.

Time Position Orientation Groundspeed Altitude Reporting Facility
EDT Latitude Longitude Course Direction KTS MPH feet Rate Location/Type
Wed 05:38:45 AM 35.0500 -89.9333 59° Northeast 135 155 2,000  Level KMEM
Wed 05:39:45 AM 35.0667 -89.9000 59° Northeast 145 167 2,800 893 Climbing KMEM
Wed 05:40:46 AM 35.0833 -89.8667 59° Northeast 124 143 3,800 950 Climbing KMEM
Wed 05:41:45 AM 35.1000 -89.8167 68° East 130 150 4,700 807 Climbing KMEM
Wed 05:42:45 AM 35.1000 -89.7833 90° East 135 155 5,400 750 Climbing KMEM
Wed 05:43:45 AM 35.1167 -89.7333 68° East 142 163 6,200 750 Climbing KMEM
Wed 05:44:45 AM 35.1167 -89.6833 90° East 142 163 6,900 700 Climbing KMEM
Wed 05:45:45 AM 35.1333 -89.6333 68° East 148 170 7,600 634 Climbing KMEM
Wed 05:46:48 AM 35.1500 -89.5833 68° East 148 170 8,200 550 Climbing KMEM
Wed 05:47:45 AM 35.1592 -89.5469 73° East 147 169 8,700 513 Climbing Memphis Center
Wed 05:48:45 AM 35.1650 -89.4933 82° East 156 180 9,200 250 Climbing Memphis Center
Wed 05:49:45 AM 35.1728 -89.4350 81° East 161 185 9,200  Level Memphis Center
Wed 05:50:45 AM 35.1786 -89.3764 83° East 161 185 9,200  Level Memphis Center
Wed 05:51:45 AM 35.1844 -89.3156 83° East 166 191 9,200  Level Memphis Center
Wed 05:52:45 AM 35.1903 -89.2569 83° East 166 191 9,200  Level Memphis Center
Wed 05:53:45 AM 35.1981 -89.1958 81° East 172 198 9,200  Level Memphis Center
Wed 05:54:45 AM 35.2036 -89.1397 83° East 177 204 9,200  Level Memphis Center
Wed 05:55:45 AM 35.2114 -89.0786 81° East 182 209 9,200  Level Memphis Center
Wed 05:56:45 AM 35.2150 -89.0278 85° East 176 203 9,200 50 Level Memphis Center
Wed 05:57:45 AM 35.2228 -88.9667 81° East 182 209 9,300  Climbing Memphis Center
Wed 05:58:45 AM 35.2325 -88.9081 79° East 175 201 9,200 -50 Descending Memphis Center
Wed 05:59:45 AM 35.2403 -88.8519 80° East 175 201 9,200  Level Memphis Center
Wed 06:00:45 AM 35.2478 -88.7908 81° East 175 201 9,200 -50 Level Memphis Center
Wed 06:01:45 AM 35.2575 -88.7322 79° East 175 201 9,100  Descending Memphis Center
Wed 06:02:45 AM 35.2628 -88.6658 84° East 175 201 9,200 50 Climbing Memphis Center
Wed 06:03:45 AM 35.2703 -88.6097 81° East 180 207 9,200  Level Memphis Center
Wed 06:04:45 AM 35.2778 -88.5511 81° East 180 207 9,200  Level Memphis Center
Wed 06:05:45 AM 35.2875 -88.4925 78° East 175 201 9,200  Level Memphis Center
Wed 06:06:45 AM 35.2908 -88.4417 85° East 175 201 9,200  Level Memphis Center
Wed 06:07:45 AM 35.2983 -88.3828 81° East 170 196 9,200  Level Memphis Center
Wed 06:08:45 AM 35.3056 -88.3267 81° East 170 196 9,200 -50 Level Memphis Center
Wed 06:09:45 AM 35.3131 -88.2681 81° East 170 196 9,100  Descending Memphis Center
Wed 06:10:45 AM 35.3203 -88.2092 81° East 170 196 9,200 50 Climbing Memphis Center
Wed 06:11:45 AM 35.3278 -88.1506 81° East 170 196 9,200 -100 Level Memphis Center
Wed 06:12:45 AM 35.3308 -88.0894 86° East 170 196 9,000 -100 Descending Memphis Center
Wed 06:13:45 AM 35.3381 -88.0306 81° East 170 196 9,000 50 Level Memphis Center
Wed 06:14:45 AM 35.3475 -87.9769 78° East 170 196 9,100  Climbing Memphis Center
Wed 06:15:45 AM 35.3525 -87.9131 85° East 175 201 9,000 -50 Descending Memphis Center
Wed 06:16:45 AM 35.3617 -87.8544 79° East 175 201 9,000  Level Memphis Center
Wed 06:17:45 AM 35.3689 -87.7981 81° East 175 201 9,000  Level Memphis Center
Wed 06:18:45 AM 35.3761 -87.7392 81° East 169 194 9,000 50 Level Memphis Center
Wed 06:19:45 AM 35.3831 -87.6831 81° East 169 194 9,100 50 Climbing Memphis Center
Wed 06:20:45 AM 35.3903 -87.6242 81° East 169 194 9,100 -50 Level Memphis Center
Wed 06:21:45 AM 35.4014 -87.5603 78° East 169 194 9,000 -50 Descending Memphis Center
Wed 06:22:45 AM 35.4125 -87.5064 76° East 164 189 9,000  Level Memphis Center
Wed 06:23:45 AM 35.4197 -87.4578 80° East 164 189 9,000  Level Memphis Center
Wed 06:24:45 AM 35.4269 -87.4014 81° East 164 189 9,000  Level Memphis Center
Wed 06:25:45 AM 35.4358 -87.3450 79° East 159 183 9,000 50 Level Memphis Center
Wed 06:26:45 AM 35.4469 -87.2886 76° East 159 183 9,100  Climbing Memphis Center
Wed 06:27:45 AM 35.4519 -87.2347 83° East 159 183 9,000 -50 Descending Memphis Center
Wed 06:28:45 AM 35.4589 -87.1786 81° East 159 183 9,000  Level Memphis Center
Wed 06:29:45 AM 35.4658 -87.1247 81° East 159 183 9,000  Level Memphis Center
Wed 06:30:45 AM 35.4747 -87.0631 80° East 159 183 9,000 50 Level Memphis Center
Wed 06:31:45 AM 35.4794 -87.0094 84° East 164 189 9,100  Climbing Memphis Center
Wed 06:32:45 AM 35.4861 -86.9506 82° East 159 183 9,000 -50 Descending Memphis Center
Wed 06:33:45 AM 35.4953 -86.8992 78° East 159 183 9,000  Level Memphis Center
Wed 06:34:45 AM 35.4997 -86.8403 85° East 164 189 9,000  Level Memphis Center
Wed 06:35:45 AM 35.5064 -86.7839 82° East 164 189 9,000  Level Memphis Center
Wed 06:36:45 AM 35.5153 -86.7300 79° East 164 189 9,000  Level Memphis Center
Wed 06:37:45 AM 35.5200 -86.6736 84° East 164 189 9,000  Level Memphis Center
Wed 06:38:45 AM 35.5289 -86.6197 79° East 164 189 9,000  Level Memphis Center
Wed 06:39:45 AM 35.5353 -86.5633 82° East 164 189 9,000  Level Memphis Center
Wed 06:40:45 AM 35.5419 -86.5069 82° East 164 189 9,000 50 Level Memphis Center
Wed 06:41:45 AM 35.5486 -86.4556 81° East 158 182 9,100 50 Climbing Memphis Center
Wed 06:42:45 AM 35.5553 -86.4017 81° East 158 182 9,100 -50 Level Memphis Center
Wed 06:43:45 AM 35.5597 -86.3453 84° East 164 189 9,000 -50 Descending Memphis Center
Wed 06:44:45 AM 35.5664 -86.2914 81° East 164 189 9,000  Level Memphis Center
Wed 06:45:45 AM 35.5728 -86.2347 82° East 158 182 9,000 100 Level Memphis Center
Wed 06:46:45 AM 35.5769 -86.1708 85° East 164 189 9,200 100 Climbing Memphis Center
Wed 06:47:45 AM 35.5833 -86.1144 82° East 164 189 9,200  Level Memphis Center
Wed 06:48:45 AM 35.5919 -86.0603 79° East 164 189 9,200 -50 Level Memphis Center
Wed 06:49:45 AM 35.5983 -86.0039 82° East 164 189 9,100 -50 Descending Memphis Center
Wed 06:50:45 AM 35.6025 -85.9422 85° East 164 189 9,100 50 Level Memphis Center
Wed 06:51:45 AM 35.6089 -85.8883 82° East 164 189 9,200 50 Climbing Memphis Center
Wed 06:52:45 AM 35.6153 -85.8319 82° East 164 189 9,200 -50 Level Memphis Center
Wed 06:53:45 AM 35.6214 -85.7753 82° East 164 189 9,100 -50 Descending Memphis Center
Wed 06:54:45 AM 35.6278 -85.7214 82° East 159 183 9,100 32 Level Memphis Center
Wed 06:56:52 AM 35.6394 -85.6103 83° East 164 189 9,200  Climbing Atlanta Center
Wed 06:57:52 AM 35.6464 -85.5542 81° East 164 189 9,100  Descending Atlanta Center
Wed 06:58:52 AM 35.6492 -85.4981 86° East 159 183 9,200  Climbing Atlanta Center
Wed 06:59:52 AM 35.6561 -85.4394 82° East 159 183 9,100 -50 Descending Atlanta Center
Wed 07:00:52 AM 35.6631 -85.3833 81° East 159 183 9,100  Level Atlanta Center
Wed 07:01:52 AM 35.6719 -85.3297 78° East 159 183 9,100 -50 Level Atlanta Center
Wed 07:02:52 AM 35.6786 -85.2736 82° East 159 183 9,000 -50 Descending Atlanta Center
Wed 07:03:52 AM 35.6814 -85.2175 86° East 159 183 9,000 50 Level Atlanta Center
Wed 07:04:52 AM 35.6861 -85.1636 84° East 159 183 9,100 50 Climbing Atlanta Center
Wed 07:05:52 AM 35.6906 -85.1100 84° East 159 183 9,100  Level Atlanta Center
Wed 07:06:52 AM 35.6953 -85.0564 84° East 159 183 9,100  Level Atlanta Center
Wed 07:07:52 AM 35.7000 -85.0053 83° East 159 183 9,100  Level Atlanta Center
Wed 07:08:52 AM 35.7044 -84.9492 84° East 159 183 9,100 -100 Level Atlanta Center
Wed 07:09:52 AM 35.7092 -84.8956 84° East 159 183 8,900 -350 Descending Atlanta Center
Wed 07:10:52 AM 35.7178 -84.8394 79° East 159 183 8,400 -550 Descending Atlanta Center
Wed 07:11:52 AM 35.7222 -84.7781 85° East 159 183 7,800 -500 Descending Atlanta Center
Wed 07:12:52 AM 35.7269 -84.7167 85° East 159 183 7,400 -350 Descending Atlanta Center
Wed 07:13:52 AM 35.7356 -84.6503 81° East 164 189 7,100 -400 Descending Atlanta Center
Wed 07:14:52 AM 35.7419 -84.5939 82° East 169 194 6,600 -500 Descending Atlanta Center
Wed 07:15:52 AM 35.7506 -84.5325 80° East 169 194 6,100 -450 Descending Atlanta Center
Wed 07:16:52 AM 35.7572 -84.4711 82° East 175 201 5,700 -400 Descending Atlanta Center
Wed 07:17:52 AM 35.7636 -84.4125 82° East 175 201 5,300 -400 Descending Atlanta Center
Wed 07:19:00 AM 35.7651 -84.3495 88° East  Level FlightAware
Wed 07:26:00 AM 35.8000 -83.9833 90° East  Level FlightAware
Wed 07:27:00 AM 35.8110 -83.9940 90° East  Level Estimated
Wed 07:28:00 AM 35.8110 -83.9940 90° East  Level Estimated
Wed 07:29:00 AM 35.8110 -83.9940 90° East  Level Estimated
Wed 07:30:00 AM 35.8110 -83.9940 90° East  Level Estimated
Wed 07:31:00 AM 35.8110 -83.9940 90° East  Level Estimated
Wed 07:32:00 AM 35.8110 -83.9940 90° East  Level Estimated
Wed 07:33:00 AM 35.8110 -83.9940 90° East  Level Estimated

Login

Don't have an account? Register now (free) for customized features, flight alerts, and more!